Sunday, January 20, 2019, 1:52 AM EST
Back to Local

KEWB, New Bedford Regional Airport

Location: New Bedford, MA, United States Lat: 41.683
Local Time: 1:52 AM EST ( 6:52 GMT) Lon: -70.967
Time Zone: US/Eastern Elev: 78 ft

Show me the last for .
Show Decoded

2019-01-20 00:53 METAR KEWB 200553Z AUTO 07009KT 1 1/2SM -SN BR OVC005 01/01 A2995 RMK AO2 SLP143
                 P0004 60009 T00060006 10006 21011 58041 =
2019-01-20 00:33 METAR KEWB 200533Z AUTO 07010KT 1 1/2SM -SN BR OVC006 01/01 A2997 RMK AO2 P0002
                 T00060006 =
2019-01-20 00:24 METAR KEWB 200524Z AUTO 07009KT 2SM -SN BR OVC006 01/01 A2998 RMK AO2 P0001
                 T00060006 =
2019-01-20 00:09 METAR KEWB 200509Z AUTO 07009KT 1 3/4SM -SN BR OVC006 01/01 A3000 RMK AO2 PRESFR
                 P0001 T00060006 =
2019-01-19 23:53 METAR KEWB 200453Z AUTO 06008KT 4SM -SN BR OVC006 01/01 A3002 RMK AO2 SLP166
                 P0003 T00060006 400221067 =
2019-01-19 23:17 METAR KEWB 200417Z AUTO 05008KT 7SM -SN OVC006 00/00 A3006 RMK AO2 P0001
                 T00000000 =
2019-01-19 23:05 METAR KEWB 200405Z AUTO 06006KT 2SM -SN BR OVC006 00/00 A3008 RMK AO2 P0001
                 T00000000 =
2019-01-19 22:53 METAR KEWB 200353Z AUTO 05006KT 3SM -SN BR OVC006 00/00 A3008 RMK AO2 SLP187
                 P0001 T00000000 =
2019-01-19 21:53 METAR KEWB 200253Z 06010KT 3SM -SN BR OVC007 M01/M01 A3007 RMK AO2 CIG 006V011
                 SLP185 P0000 60001 T10061006 56034 =
2019-01-19 21:50 METAR KEWB 200250Z 07010KT 3SM -SN BR OVC007 M01/M01 A3008 RMK AO2 CIG 006V011
                 PRESFR P0000 =
2019-01-19 21:38 METAR KEWB 200238Z 07007KT 2 1/2SM -SN BR OVC007 M01/M01 A3009 RMK AO2 CIG
                 006V011 P0000 T10061006 =
2019-01-19 21:10 METAR KEWB 200210Z 05008KT 2SM -SN BR OVC009 M01/M01 A3014 RMK AO2 CIG 005V013
                 P0000 T10061006 =
2019-01-19 21:01 METAR KEWB 200201Z 07008KT 1 3/4SM -SN BR BKN009 OVC026 M01/M01 A3014 RMK AO2
                 P0000 T10061006 =
2019-01-19 20:53 METAR KEWB 200153Z 07009KT 2SM -SN BR BKN007 BKN013 OVC018 M01/M01 A3014 RMK AO2
                 SLP208 P0001 T10061006 =
2019-01-19 20:45 METAR KEWB 200145Z 08008KT 2SM -SN BR BKN007 BKN017 OVC025 M01/M01 A3015 RMK AO2
                 P0001 T10061006 =
2019-01-19 20:02 METAR KEWB 200102Z 06009KT 1 3/4SM -SN BR BKN007 OVC012 M01/M01 A3016 RMK AO2
                 PRESFR P0001 T10061006 =
2019-01-19 19:53 METAR KEWB 200053Z 06008KT 2SM -SN BR OVC008 M01/M01 A3018 RMK AO2 SLP219 P0000
                 T10061006 =
2019-01-19 19:45 METAR KEWB 200045Z 05006KT 2SM -SN BR OVC010 M01/M01 A3018 RMK AO2 P0000
                 T10061006 =
2019-01-19 19:02 METAR KEWB 200002Z 04005KT 1 3/4SM -SN BR OVC007 M01/M01 A3019 RMK AO2 P0000
                 T10111011 =
2019-01-19 18:53 METAR KEWB 192353Z VRB04KT 3SM -SN BR OVC007 M01/M01 A3020 RMK AO2 SLP226 P0000
                 60000 T10111011 11006 21011 58007 =
2019-01-19 18:34 METAR KEWB 192334Z 04007KT 2 1/2SM -SN BR BKN007 BKN029 OVC037 M01/M01 A3018 RMK
                 AO2 P0000 T10111011 =
2019-01-19 18:25 METAR KEWB 192325Z 04007KT 2 1/2SM -SN BR SCT008 BKN018 OVC029 M01/M01 A3018 RMK
                 AO2 P0000 T10111011 =
2019-01-19 18:16 METAR KEWB 192316Z 04008KT 1 3/4SM -SN BR FEW008 SCT018 OVC028 M01/M01 A3019 RMK
                 AO2 PRESFR P0000 T10111011 =
2019-01-19 18:11 METAR KEWB 192311Z 04008KT 2SM -SN BR FEW020 OVC028 M01/M02 A3020 RMK AO2 P0000
                 T10111017 =
2019-01-19 17:53 METAR KEWB 192253Z 03006KT 3SM -SN BR FEW009 OVC026 M01/M02 A3022 RMK AO2
                 SNB2158 PRESFR SLP233 P0000 T10111017 =
2019-01-19 17:27 METAR KEWB 192227Z 04005KT 4SM -SN BR FEW009 BKN023 OVC028 M01/M02 A3024 RMK AO2
                 SNB2158 P0000 T10111017 =
2019-01-19 16:53 METAR KEWB 192153Z 04007KT 6SM BR OVC017 M01/M02 A3022 RMK AO2
                 UPB08E11SNB2055E08B11E50 SLP233 P0000 T10111017 =
2019-01-19 15:53 METAR KEWB 192053Z 04005KT 10SM OVC016 M01/M02 A3022 RMK AO2 SLP233 T10061022
                 55010 =
2019-01-19 14:53 METAR KEWB 191953Z 04007KT 10SM SCT016 OVC026 M01/M02 A3020 RMK AO2 SLP226
                 T10061022 =
2019-01-19 13:53 METAR KEWB 191853Z 03009KT 10SM SCT018 OVC027 M01/M03 A3023 RMK AO2 SLP237
                 T10061033 =
2019-01-19 12:53 METAR KEWB 191753Z 04009KT 10SM OVC017 00/M04 A3025 RMK AO2 SLP244 T00001039
                 10022 21067 58009 =
2019-01-19 11:53 METAR KEWB 191653Z 03007KT 10SM OVC028 01/M04 A3028 RMK AO2 SLP254 T00111044 =
2019-01-19 11:23 METAR KEWB 191623Z 03006KT 10SM BKN028 OVC043 02/M04 A3029 RMK AO2 T00171044 =
2019-01-19 10:53 METAR KEWB 191553Z 03008KT 10SM OVC043 02/M04 A3028 RMK AO2 SLP254 T00171044 =
2019-01-19 09:53 METAR KEWB 191453Z 02007KT 10SM SCT044 01/M04 A3028 RMK AO2 SLP253 T00061039
                 53015 =
2019-01-19 08:53 METAR KEWB 191353Z 01004KT 10SM CLR M01/M05 A3025 RMK AO2 SLP243 T10111050 =
2019-01-19 07:53 METAR KEWB 191253Z 34003KT 10SM CLR M03/M07 A3024 RMK AO2 SLP240 T10331067 =
2019-01-19 06:53 METAR KEWB 191153Z 00000KT 10SM CLR M03/M06 A3023 RMK AO2 PRESRR SLP239 I6001
                 T10331061 11017 21061 53016 =
2019-01-19 05:53 METAR KEWB 191053Z AUTO 00000KT 10SM CLR M03/M06 A3020 RMK AO2 SLP229 T10331056
                 =
2019-01-19 04:53 METAR KEWB 190953Z AUTO 00000KT 10SM CLR M06/M06 A3019 RMK AO2 SLP222 T10611061
                 =
2019-01-19 03:53 METAR KEWB 190853Z AUTO 33003KT 10SM FEW049 M02/M04 A3019 RMK AO2 SLP222 I3001
                 T10221039 53021 =
2019-01-19 02:53 METAR KEWB 190753Z AUTO 00000KT 6SM BR CLR M04/M04 A3015 RMK AO2 SLP210 I1001
                 T10391044 =
2019-01-19 01:53 METAR KEWB 190653Z AUTO 00000KT 7SM CLR M03/M04 A3014 RMK AO2 SLP206 T10331044 =

Support USWX by starting your Amazon purchase here.